Time;durP1;ratioP1;P1;durP2;ratioP2;P2;SDS_P1;SDS_P2;PMS_P1;PMS_P2;Temp;Humidity;BMP_temperature;BMP_pressure;BME280_temperature;BME280_humidity;BME280_pressure;Samples;Min_cycle;Max_cycle;Signal;HPM_P1;HPM_P2
2021/04/23 00:01:19;;;;;;;3.00;1.27;;;22.70;34.20;;;;;;5050923;28;20758;-56
2021/04/23 00:03:51;;;;;;;2.65;1.40;;;22.70;34.10;;;;;;5052153;28;20399;-56
2021/04/23 00:06:29;;;;;;;2.30;1.40;;;22.70;34.20;;;;;;5051671;28;20555;-56
2021/04/23 00:08:59;;;;;;;2.30;1.50;;;22.70;34.20;;;;;;5051894;28;20417;-56
2021/04/23 00:11:33;;;;;;;2.20;1.20;;;22.70;34.20;;;;;;5051857;28;20382;-57
2021/04/23 00:13:59;;;;;;;1.77;1.17;;;22.70;34.10;;;;;;5051495;28;20459;-57
2021/04/23 00:16:24;;;;;;;2.40;1.50;;;22.70;34.10;;;;;;5051932;28;20878;-56
2021/04/23 00:18:50;;;;;;;2.33;1.40;;;22.70;34.10;;;;;;5051628;28;20382;-56
2021/04/23 00:21:21;;;;;;;2.28;1.42;;;22.70;34.00;;;;;;5051885;28;20928;-57
2021/04/23 00:23:48;;;;;;;2.30;1.40;;;22.60;34.00;;;;;;5051901;28;20393;-57
2021/04/23 00:26:14;;;;;;;1.90;1.35;;;22.60;34.10;;;;;;5051143;28;20420;-56
2021/04/23 00:28:39;;;;;;;2.30;1.10;;;22.60;34.00;;;;;;5051757;28;20385;-56
2021/04/23 00:31:07;;;;;;;2.15;1.30;;;22.70;34.20;;;;;;5051255;28;20515;-57
2021/04/23 00:33:33;;;;;;;1.90;1.27;;;22.70;34.30;;;;;;5051609;28;20392;-57
2021/04/23 00:35:58;;;;;;;1.98;1.20;;;22.70;34.20;;;;;;5051099;28;20386;-56
2021/04/23 00:38:26;;;;;;;2.10;1.20;;;22.70;34.20;;;;;;5051547;28;20386;-56
2021/04/23 00:40:59;;;;;;;2.55;1.30;;;22.60;34.10;;;;;;5051457;28;20394;-56
2021/04/23 00:43:29;;;;;;;1.80;1.13;;;22.70;34.20;;;;;;5051537;28;20417;-56
2021/04/23 00:45:55;;;;;;;1.90;1.10;;;22.70;34.20;;;;;;5051271;28;20508;-56
2021/04/23 00:48:23;;;;;;;2.03;1.20;;;22.70;34.00;;;;;;5051081;28;20957;-57
2021/04/23 00:51:00;;;;;;;2.35;1.25;;;22.60;34.20;;;;;;5051245;28;20381;-57
2021/04/23 00:53:28;;;;;;;2.33;1.40;;;22.60;34.20;;;;;;5051178;28;20425;-57
2021/04/23 00:55:56;;;;;;;3.03;1.60;;;22.60;34.20;;;;;;5049810;28;20823;-56
2021/04/23 00:58:25;;;;;;;2.05;1.40;;;22.60;34.20;;;;;;5051071;28;20393;-56
2021/04/23 01:00:55;;;;;;;2.67;1.60;;;22.60;34.20;;;;;;5051150;28;20397;-57
2021/04/23 01:03:22;;;;;;;2.70;1.40;;;22.60;34.20;;;;;;5051191;28;20385;-57
2021/04/23 01:05:50;;;;;;;2.50;1.52;;;22.60;34.20;;;;;;5049901;28;20440;-56
2021/04/23 01:08:17;;;;;;;2.50;1.27;;;22.60;34.20;;;;;;5050773;28;20389;-56
2021/04/23 01:10:43;;;;;;;2.17;1.42;;;22.50;34.20;;;;;;5051009;28;20385;-57
2021/04/23 01:13:09;;;;;;;2.25;1.45;;;22.50;34.20;;;;;;5051233;28;20938;-57
2021/04/23 01:15:35;;;;;;;2.10;1.33;;;22.50;34.30;;;;;;5051215;28;20389;-56
2021/04/23 01:18:01;;;;;;;2.30;1.40;;;22.50;34.30;;;;;;5050733;28;20450;-57
2021/04/23 01:20:27;;;;;;;2.33;1.50;;;22.50;34.20;;;;;;5051372;28;20393;-56
2021/04/23 01:22:53;;;;;;;2.58;1.65;;;22.50;34.20;;;;;;5051055;28;20392;-57
2021/04/23 01:25:20;;;;;;;1.92;1.30;;;22.50;34.20;;;;;;5051323;28;20397;-56
2021/04/23 01:27:46;;;;;;;2.25;1.52;;;22.50;34.10;;;;;;5050997;28;20393;-57
2021/04/23 01:30:16;;;;;;;2.53;1.50;;;22.50;34.10;;;;;;5050165;28;20382;-56
2021/04/23 01:32:42;;;;;;;2.38;1.40;;;22.50;34.20;;;;;;5050707;28;20389;-56
2021/04/23 01:35:13;;;;;;;2.25;1.42;;;22.50;34.10;;;;;;5050949;28;20388;-56
2021/04/23 01:37:39;;;;;;;2.20;1.20;;;22.50;34.00;;;;;;5050866;28;20444;-56
2021/04/23 01:40:08;;;;;;;2.65;1.42;;;22.50;34.00;;;;;;5050490;28;20404;-56
2021/04/23 01:42:34;;;;;;;2.30;1.35;;;22.50;33.80;;;;;;5051067;28;20386;-56
2021/04/23 01:45:00;;;;;;;2.40;1.50;;;22.50;33.80;;;;;;5054135;28;20412;-56
2021/04/23 01:47:26;;;;;;;2.33;1.42;;;22.50;33.70;;;;;;5054553;28;20478;-56
2021/04/23 01:49:54;;;;;;;2.40;1.35;;;22.50;33.70;;;;;;5054618;28;20381;-57
2021/04/23 01:52:21;;;;;;;1.95;1.40;;;22.50;33.60;;;;;;5054142;28;20397;-56
2021/04/23 01:54:49;;;;;;;1.80;1.20;;;22.50;33.70;;;;;;5054478;28;20987;-57
2021/04/23 01:57:16;;;;;;;2.33;1.30;;;22.50;33.80;;;;;;5054464;28;20484;-57
2021/04/23 01:59:44;;;;;;;2.28;1.30;;;22.40;33.70;;;;;;5054441;28;20377;-57
2021/04/23 02:02:11;;;;;;;1.98;1.30;;;22.40;34.30;;;;;;5054030;28;20378;-56
2021/04/23 02:04:37;;;;;;;3.23;1.50;;;22.40;33.60;;;;;;5054411;28;20424;-57
2021/04/23 02:07:05;;;;;;;2.10;1.35;;;22.40;33.70;;;;;;5054305;28;20452;-56
2021/04/23 02:09:31;;;;;;;2.15;1.45;;;22.40;33.70;;;;;;5054303;28;20390;-56
2021/04/23 02:11:57;;;;;;;2.50;1.40;;;22.40;33.60;;;;;;5053998;28;20389;-57
2021/04/23 02:14:24;;;;;;;2.00;1.33;;;22.40;33.60;;;;;;5053998;28;20870;-57
2021/04/23 02:16:50;;;;;;;2.20;1.30;;;22.40;33.60;;;;;;5054170;28;20870;-57
2021/04/23 02:19:18;;;;;;;2.40;1.33;;;22.40;33.60;;;;;;5054094;28;20986;-57
2021/04/23 02:21:45;;;;;;;2.17;1.20;;;22.40;33.60;;;;;;5054021;28;20719;-56
2021/04/23 02:24:11;;;;;;;2.33;1.55;;;22.40;33.50;;;;;;5053616;28;20389;-56
2021/04/23 02:26:38;;;;;;;2.25;1.33;;;22.40;33.50;;;;;;5053962;28;20405;-56
2021/04/23 02:29:13;;;;;;;2.50;1.35;;;22.40;33.50;;;;;;5053897;28;20390;-56
2021/04/23 02:31:43;;;;;;;2.23;1.30;;;22.30;33.40;;;;;;5053837;28;20873;-56
2021/04/23 02:34:12;;;;;;;2.28;1.35;;;22.30;34.10;;;;;;5053323;28;20417;-56
2021/04/23 02:36:40;;;;;;;2.03;1.10;;;22.30;33.40;;;;;;5053856;28;20463;-57
2021/04/23 02:39:08;;;;;;;2.30;1.30;;;22.30;33.40;;;;;;5053751;28;20388;-57
2021/04/23 02:41:34;;;;;;;1.80;1.30;;;22.40;33.40;;;;;;5053690;28;20749;-57
2021/04/23 02:44:00;;;;;;;2.45;1.30;;;22.30;33.40;;;;;;5053403;28;21122;-56
2021/04/23 02:46:27;;;;;;;1.88;1.10;;;22.30;33.30;;;;;;5053089;28;20427;-57
2021/04/23 02:48:53;;;;;;;2.40;1.30;;;22.30;33.30;;;;;;5053533;28;20390;-56
2021/04/23 02:51:26;;;;;;;1.77;1.13;;;22.40;33.40;;;;;;5052229;28;20409;-56
2021/04/23 02:53:52;;;;;;;2.20;1.25;;;22.40;33.40;;;;;;5053336;28;20389;-56
2021/04/23 02:56:19;;;;;;;1.70;1.02;;;22.40;33.40;;;;;;5052791;28;20488;-57
2021/04/23 02:58:45;;;;;;;1.50;1.10;;;22.40;33.30;;;;;;5053371;28;20389;-57
2021/04/23 03:01:17;;;;;;;1.70;1.20;;;22.40;33.30;;;;;;5053338;28;20446;-56
2021/04/23 03:03:44;;;;;;;2.00;1.30;;;22.40;33.30;;;;;;5053276;28;20373;-56
2021/04/23 03:06:10;;;;;;;1.70;1.00;;;22.40;33.20;;;;;;5052720;28;20402;-56
2021/04/23 03:08:36;;;;;;;1.83;1.10;;;22.30;33.20;;;;;;5053151;28;20472;-57
2021/04/23 03:11:15;;;;;;;1.92;1.13;;;22.30;33.20;;;;;;5053046;28;20393;-56
2021/04/23 03:13:48;;;;;;;1.75;1.20;;;22.30;33.20;;;;;;5053071;28;20396;-56
2021/04/23 03:16:14;;;;;;;1.63;1.00;;;22.30;33.20;;;;;;5052877;28;20389;-57
2021/04/23 03:18:42;;;;;;;1.65;1.15;;;22.30;33.20;;;;;;5053267;28;20396;-56
2021/04/23 03:21:09;;;;;;;1.85;1.20;;;22.30;33.20;;;;;;5052947;28;20373;-56
2021/04/23 03:23:35;;;;;;;1.80;1.05;;;22.30;33.20;;;;;;5052907;28;20394;-56
2021/04/23 03:26:06;;;;;;;1.53;0.90;;;22.30;33.20;;;;;;5052507;28;20409;-57
2021/04/23 03:28:32;;;;;;;1.80;1.10;;;22.30;33.20;;;;;;5052754;28;20921;-56
2021/04/23 03:30:58;;;;;;;1.60;1.13;;;22.30;33.10;;;;;;5052712;28;20398;-57
2021/04/23 03:33:23;;;;;;;2.10;1.20;;;22.20;33.10;;;;;;5052800;28;20476;-56
2021/04/23 03:35:52;;;;;;;1.63;1.10;;;22.20;33.10;;;;;;5052605;28;20386;-57
2021/04/23 03:38:19;;;;;;;1.83;1.10;;;22.20;33.10;;;;;;5052308;28;20381;-56
2021/04/23 03:40:46;;;;;;;1.75;1.20;;;22.20;33.10;;;;;;5051294;28;20393;-57
2021/04/23 03:43:12;;;;;;;1.60;1.10;;;22.20;33.10;;;;;;5052524;28;20469;-57
2021/04/23 03:45:38;;;;;;;1.52;1.10;;;22.20;33.10;;;;;;5052456;28;20388;-56
2021/04/23 03:48:06;;;;;;;2.00;1.38;;;22.20;33.10;;;;;;5052023;28;20409;-56
2021/04/23 03:50:34;;;;;;;1.77;1.10;;;22.20;33.00;;;;;;5052245;28;20392;-56
2021/04/23 03:53:04;;;;;;;1.50;1.00;;;22.20;33.00;;;;;;5052221;28;20396;-56
2021/04/23 03:55:36;;;;;;;1.70;1.08;;;22.20;33.00;;;;;;5052449;28;20472;-56
2021/04/23 03:58:04;;;;;;;1.70;1.00;;;22.20;33.00;;;;;;5051941;28;20400;-57
2021/04/23 04:00:43;;;;;;;1.80;1.25;;;22.20;33.00;;;;;;5051971;28;20381;-56
2021/04/23 04:03:10;;;;;;;1.38;0.80;;;22.20;33.00;;;;;;5052172;28;20397;-56
2021/04/23 04:05:36;;;;;;;1.60;1.00;;;22.20;33.00;;;;;;5051800;28;20420;-56
2021/04/23 04:08:04;;;;;;;1.65;1.00;;;22.20;32.90;;;;;;5051481;28;20467;-58
2021/04/23 04:10:30;;;;;;;2.00;1.08;;;22.20;32.90;;;;;;5051762;28;20746;-57
2021/04/23 04:12:55;;;;;;;2.13;1.10;;;22.20;32.90;;;;;;5050667;28;20405;-56
2021/04/23 04:15:23;;;;;;;1.83;1.10;;;22.10;32.80;;;;;;5051938;28;20396;-56
2021/04/23 04:17:50;;;;;;;1.75;1.02;;;22.20;32.90;;;;;;5051748;28;20429;-56
2021/04/23 04:20:17;;;;;;;1.60;1.10;;;22.10;32.90;;;;;;5051406;28;20425;-56
2021/04/23 04:22:43;;;;;;;1.77;1.23;;;22.10;32.80;;;;;;5051716;28;20393;-57
2021/04/23 04:25:13;;;;;;;1.60;0.98;;;22.10;32.80;;;;;;5051851;28;20393;-56
2021/04/23 04:27:40;;;;;;;1.67;1.05;;;22.10;32.80;;;;;;5051647;28;20496;-56
2021/04/23 04:30:07;;;;;;;1.65;1.00;;;22.10;32.80;;;;;;5051477;28;20428;-57
2021/04/23 04:32:33;;;;;;;1.63;1.10;;;22.10;32.80;;;;;;5050817;28;20385;-56
2021/04/23 04:34:58;;;;;;;1.90;1.00;;;22.10;32.90;;;;;;5051508;28;20412;-56
2021/04/23 04:37:24;;;;;;;1.80;1.17;;;22.10;32.90;;;;;;5051686;28;20386;-56
2021/04/23 04:39:50;;;;;;;1.67;1.00;;;22.10;32.90;;;;;;5051437;28;20769;-57
2021/04/23 04:42:15;;;;;;;1.35;0.98;;;22.10;32.90;;;;;;5050952;28;20812;-56
2021/04/23 04:44:41;;;;;;;1.67;1.10;;;22.00;32.90;;;;;;5051293;28;20389;-57
2021/04/23 04:47:07;;;;;;;1.92;1.10;;;22.10;32.90;;;;;;5050936;28;20848;-56
2021/04/23 04:49:32;;;;;;;2.20;1.10;;;22.00;32.90;;;;;;5051234;28;20432;-57
2021/04/23 04:51:59;;;;;;;2.50;1.10;;;22.10;33.00;;;;;;5051443;28;20393;-57
2021/04/23 04:54:24;;;;;;;2.25;1.40;;;22.10;33.20;;;;;;5050936;28;20930;-56
2021/04/23 04:56:50;;;;;;;3.63;1.40;;;22.20;32.80;;;;;;5050043;28;20904;-56
2021/04/23 04:59:16;;;;;;;1.70;1.10;;;22.10;32.30;;;;;;5051257;28;20974;-57
2021/04/23 05:01:41;;;;;;;3.73;1.50;;;22.00;32.70;;;;;;5050792;28;20473;-56
2021/04/23 05:04:07;;;;;;;2.75;1.50;;;22.00;32.90;;;;;;5050901;28;20397;-57
2021/04/23 05:06:33;;;;;;;3.13;1.47;;;21.90;33.00;;;;;;5050782;28;20405;-57
2021/04/23 05:08:59;;;;;;;2.85;1.30;;;21.90;33.10;;;;;;5051184;28;20389;-56
2021/04/23 05:11:24;;;;;;;4.15;1.35;;;21.90;33.20;;;;;;5051159;28;20382;-56
2021/04/23 05:13:50;;;;;;;4.90;1.70;;;21.90;33.30;;;;;;5051127;28;20386;-56
2021/04/23 05:16:17;;;;;;;5.95;1.60;;;21.90;33.80;;;;;;5050780;28;20447;-57
2021/04/23 05:18:43;;;;;;;4.53;1.70;;;21.90;33.80;;;;;;5053772;28;20393;-57
2021/04/23 05:21:08;;;;;;;3.90;1.67;;;21.90;33.80;;;;;;5054603;28;20392;-57
2021/04/23 05:23:34;;;;;;;4.67;1.50;;;21.90;33.90;;;;;;5055198;28;20392;-57
2021/04/23 05:26:00;;;;;;;3.63;1.60;;;21.90;34.30;;;;;;5054930;28;20428;-58
2021/04/23 05:28:25;;;;;;;5.73;1.77;;;21.90;34.10;;;;;;5054370;28;20465;-57
2021/04/23 05:30:51;;;;;;;3.60;1.50;;;21.90;34.10;;;;;;5054361;28;20742;-57
2021/04/23 05:33:17;;;;;;;2.42;1.33;;;21.90;34.10;;;;;;5055010;28;20377;-57
2021/04/23 05:35:43;;;;;;;4.07;1.60;;;21.90;34.10;;;;;;5054775;28;20570;-56
2021/04/23 05:38:09;;;;;;;3.45;1.90;;;21.90;34.10;;;;;;5053243;28;20727;-57
2021/04/23 05:40:43;;;;;;;3.25;1.48;;;21.90;34.10;;;;;;5053259;28;20476;-57
2021/04/23 05:43:10;;;;;;;3.35;1.50;;;21.90;34.00;;;;;;5054525;28;20377;-57
2021/04/23 05:45:39;;;;;;;3.58;1.33;;;21.90;34.00;;;;;;5054605;28;20421;-57
2021/04/23 05:48:06;;;;;;;2.08;1.60;;;21.90;34.10;;;;;;5054341;28;20413;-57
2021/04/23 05:50:32;;;;;;;4.43;1.60;;;21.90;34.20;;;;;;5054217;28;20993;-57
2021/04/23 05:52:58;;;;;;;2.78;1.40;;;21.90;34.20;;;;;;5054503;28;20488;-57
2021/04/23 05:55:25;;;;;;;3.90;1.55;;;21.90;34.20;;;;;;5054428;28;20392;-56
2021/04/23 05:57:55;;;;;;;3.72;1.70;;;21.80;34.80;;;;;;5049865;28;20870;-56
2021/04/23 06:00:23;;;;;;;2.70;1.30;;;21.80;34.90;;;;;;5052408;28;20394;-57
2021/04/23 06:02:50;;;;;;;3.78;1.60;;;21.90;35.00;;;;;;5054550;28;20416;-56
2021/04/23 06:05:18;;;;;;;2.42;1.50;;;21.90;34.90;;;;;;5054396;28;20435;-56
2021/04/23 06:07:44;;;;;;;3.83;1.23;;;22.00;35.00;;;;;;5054084;28;20417;-57
2021/04/23 06:10:12;;;;;;;4.88;1.50;;;22.00;34.40;;;;;;5054037;28;20799;-56
2021/04/23 06:12:38;;;;;;;2.70;1.45;;;22.10;34.70;;;;;;5053764;28;20485;-57
2021/04/23 06:15:05;;;;;;;2.95;1.30;;;22.10;34.40;;;;;;5053878;28;20389;-56
2021/04/23 06:17:31;;;;;;;3.67;1.40;;;22.10;34.40;;;;;;5053941;28;20397;-57
2021/04/23 06:19:57;;;;;;;5.00;1.40;;;22.10;34.30;;;;;;5053594;28;20392;-57
2021/04/23 06:22:22;;;;;;;2.40;1.30;;;22.10;34.70;;;;;;5053593;28;20877;-57
2021/04/23 06:24:48;;;;;;;3.65;1.63;;;22.10;34.00;;;;;;5053494;28;20711;-57
2021/04/23 06:27:14;;;;;;;2.65;1.50;;;22.20;33.80;;;;;;5053992;28;20839;-57
2021/04/23 06:29:40;;;;;;;4.72;1.75;;;22.20;33.70;;;;;;5052963;28;20435;-57
2021/04/23 06:32:06;;;;;;;2.88;1.50;;;22.30;33.60;;;;;;5053557;28;20397;-57
2021/04/23 06:34:31;;;;;;;2.75;1.48;;;22.20;33.50;;;;;;5053385;28;20377;-57
2021/04/23 06:36:57;;;;;;;3.73;1.50;;;22.30;33.40;;;;;;5053605;28;20409;-57
2021/04/23 06:39:23;;;;;;;2.10;1.60;;;22.30;33.30;;;;;;5053438;28;20385;-57
2021/04/23 06:41:49;;;;;;;2.10;1.30;;;22.30;33.30;;;;;;5053395;28;20385;-57
2021/04/23 06:44:16;;;;;;;2.58;1.45;;;22.40;33.30;;;;;;5053492;28;20870;-56
2021/04/23 06:46:42;;;;;;;3.92;1.70;;;22.40;33.20;;;;;;5053231;28;20439;-57
2021/04/23 06:49:08;;;;;;;2.90;1.48;;;22.40;33.20;;;;;;5053483;28;20374;-57
2021/04/23 06:51:36;;;;;;;2.40;1.77;;;22.40;33.10;;;;;;5053575;28;20394;-57
2021/04/23 06:54:03;;;;;;;2.97;1.50;;;22.50;33.00;;;;;;5053515;28;20389;-56
2021/04/23 06:56:29;;;;;;;2.20;1.50;;;22.50;32.90;;;;;;5052831;28;20443;-57
2021/04/23 06:58:55;;;;;;;2.70;1.50;;;22.50;32.80;;;;;;5053501;28;20410;-57
2021/04/23 07:01:20;;;;;;;2.38;1.40;;;22.50;32.70;;;;;;5053128;28;20770;-56
2021/04/23 07:03:46;;;;;;;1.70;1.37;;;22.60;32.70;;;;;;5052060;28;20401;-58
2021/04/23 07:06:12;;;;;;;5.70;2.45;;;22.60;32.60;;;;;;5052737;28;20488;-56
2021/04/23 07:08:39;;;;;;;6.22;2.70;;;22.60;32.20;;;;;;5053111;28;20400;-57
2021/04/23 07:11:05;;;;;;;8.38;3.40;;;22.50;31.90;;;;;;5053227;28;20381;-56
2021/04/23 07:13:31;;;;;;;6.88;3.00;;;22.50;31.20;;;;;;5053071;28;20398;-56
2021/04/23 07:15:57;;;;;;;12.40;3.83;;;22.50;30.70;;;;;;5052968;28;20761;-56
2021/04/23 07:18:22;;;;;;;14.77;4.05;;;22.40;30.60;;;;;;5052662;28;20389;-56
2021/04/23 07:20:48;;;;;;;12.17;3.90;;;22.40;30.50;;;;;;5052957;28;20401;-56
2021/04/23 07:23:14;;;;;;;9.98;3.25;;;22.50;30.50;;;;;;5053125;28;20530;-56
2021/04/23 07:25:40;;;;;;;9.47;3.20;;;22.50;30.70;;;;;;5052854;28;20949;-56
2021/04/23 07:28:06;;;;;;;8.80;3.95;;;22.50;32.60;;;;;;5053190;28;20725;-56
2021/04/23 07:30:35;;;;;;;7.82;3.60;;;22.50;35.60;;;;;;5052081;28;20469;-57
2021/04/23 07:33:04;;;;;;;8.65;3.55;;;22.50;32.00;;;;;;5052644;28;20390;-56
2021/04/23 07:35:29;;;;;;;9.00;4.05;;;22.40;33.30;;;;;;5052720;28;20386;-57
2021/04/23 07:37:57;;;;;;;7.70;3.70;;;22.40;33.70;;;;;;5052455;28;20388;-56
2021/04/23 07:40:23;;;;;;;8.13;3.60;;;22.30;33.60;;;;;;5051925;28;20897;-56
2021/04/23 07:42:49;;;;;;;6.10;2.95;;;22.40;33.60;;;;;;5051794;28;20394;-58
2021/04/23 07:45:16;;;;;;;7.03;3.17;;;22.30;34.40;;;;;;5052501;28;20398;-57
2021/04/23 07:47:43;;;;;;;7.28;3.10;;;22.30;34.20;;;;;;5050223;28;20425;-57
2021/04/23 07:50:10;;;;;;;7.57;3.78;;;22.30;34.10;;;;;;5041701;28;20391;-57
2021/04/23 07:52:36;;;;;;;6.30;3.53;;;22.30;34.30;;;;;;5031232;28;20429;-65
2021/04/23 07:55:05;;;;;;;7.38;3.60;;;22.30;34.20;;;;;;5031057;28;20800;-66
2021/04/23 07:57:31;;;;;;;6.75;3.38;;;22.40;33.50;;;;;;5031261;28;20449;-66
2021/04/23 07:59:57;;;;;;;6.13;3.13;;;22.30;33.50;;;;;;5030864;28;20391;-66
2021/04/23 08:02:29;;;;;;;5.68;3.25;;;22.20;33.50;;;;;;5106971;27;20368;-67
2021/04/23 08:04:55;;;;;;;8.45;3.63;;;22.30;32.40;;;;;;5107707;28;20397;-67
2021/04/23 08:07:20;;;;;;;6.10;3.22;;;22.30;32.10;;;;;;5107831;28;20381;-67
2021/04/23 08:09:46;;;;;;;8.80;3.20;;;22.30;31.80;;;;;;5107706;28;20865;-66
2021/04/23 08:12:12;;;;;;;6.93;3.20;;;22.30;31.90;;;;;;5107985;28;20790;-64
2021/04/23 08:14:38;;;;;;;6.18;2.60;;;22.30;31.60;;;;;;5107225;28;20456;-65
2021/04/23 08:17:03;;;;;;;6.07;2.40;;;22.30;31.50;;;;;;5107761;28;20420;-61
2021/04/23 08:19:29;;;;;;;4.82;2.28;;;22.30;31.60;;;;;;5107647;28;20468;-60
2021/04/23 08:21:55;;;;;;;5.90;2.40;;;22.40;31.50;;;;;;5107433;28;20435;-60
2021/04/23 08:24:20;;;;;;;5.00;2.10;;;22.40;31.40;;;;;;5107353;28;20476;-58
2021/04/23 08:26:46;;;;;;;4.70;2.03;;;22.50;31.50;;;;;;5107243;28;20389;-64
2021/04/23 08:29:12;;;;;;;3.55;2.00;;;22.50;32.20;;;;;;5107311;28;20377;-66
2021/04/23 08:31:41;;;;;;;4.90;1.98;;;22.50;31.90;;;;;;5107073;28;20385;-66
2021/04/23 08:34:07;;;;;;;3.70;1.93;;;22.60;31.80;;;;;;5106232;28;20407;-64
2021/04/23 08:36:33;;;;;;;4.43;2.13;;;22.60;32.30;;;;;;5106897;28;20398;-65
2021/04/23 08:38:59;;;;;;;4.65;1.90;;;22.60;31.70;;;;;;5107334;28;20389;-66
2021/04/23 08:41:25;;;;;;;3.60;1.70;;;22.60;31.80;;;;;;5107250;28;20463;-66
2021/04/23 08:43:50;;;;;;;4.70;2.10;;;22.70;31.90;;;;;;5107208;28;20873;-57
2021/04/23 08:46:16;;;;;;;3.15;1.60;;;22.70;31.90;;;;;;5105765;28;20468;-65
2021/04/23 08:48:42;;;;;;;2.50;1.40;;;22.60;31.90;;;;;;5105519;28;20397;-66
2021/04/23 08:51:08;;;;;;;3.95;2.13;;;22.60;32.10;;;;;;5107143;28;20796;-66
2021/04/23 08:53:34;;;;;;;10.55;2.65;;;22.70;31.80;;;;;;5107133;28;20386;-65
2021/04/23 08:56:01;;;;;;;9.57;2.50;;;22.70;31.30;;;;;;5106913;28;20450;-65
2021/04/23 08:58:27;;;;;;;8.35;2.58;;;22.70;31.10;;;;;;5106500;28;20397;-66
2021/04/23 09:00:53;;;;;;;5.47;2.25;;;22.70;31.20;;;;;;5105891;28;20492;-65
2021/04/23 09:03:21;;;;;;;6.10;1.77;;;22.70;31.20;;;;;;5106515;28;20393;-67
2021/04/23 09:06:11;;;;;;;4.38;2.03;;;22.80;31.10;;;;;;5105354;28;20417;-66
2021/04/23 09:08:59;;;;;;;7.07;2.35;;;22.90;31.00;;;;;;5106179;28;20373;-58
2021/04/23 09:11:46;;;;;;;6.87;2.90;;;22.90;30.50;;;;;;5106600;28;20389;-57
2021/04/23 09:14:14;;;;;;;6.68;2.67;;;22.90;30.30;;;;;;5091592;28;20769;-58
2021/04/23 09:16:56;;;;;;;6.60;2.53;;;22.90;30.00;;;;;;5091778;28;20384;-57
2021/04/23 09:19:28;;;;;;;5.40;2.42;;;23.00;30.50;;;;;;5093199;28;20386;-57
2021/04/23 09:22:04;;;;;;;5.53;2.40;;;23.00;29.80;;;;;;5092982;28;20503;-57
2021/04/23 09:24:36;;;;;;;5.60;2.00;;;23.00;30.30;;;;;;5092291;28;20418;-57
2021/04/23 09:27:12;;;;;;;3.83;1.80;;;23.10;30.30;;;;;;5092695;28;20802;-57
2021/04/23 09:29:40;;;;;;;3.83;1.70;;;23.10;30.50;;;;;;5092654;28;20378;-57
2021/04/23 09:32:12;;;;;;;3.87;1.80;;;23.20;30.70;;;;;;5092932;28;20396;-65
2021/04/23 09:34:54;;;;;;;4.32;1.98;;;23.20;30.80;;;;;;5092172;28;20431;-58
2021/04/23 09:37:22;;;;;;;3.95;1.63;;;23.30;30.90;;;;;;5092695;28;20873;-58
2021/04/23 09:39:51;;;;;;;4.10;1.77;;;23.40;31.00;;;;;;5092576;28;20379;-57
2021/04/23 09:42:17;;;;;;;4.30;1.80;;;23.40;31.00;;;;;;5092647;28;20898;-57
2021/04/23 09:44:46;;;;;;;4.00;1.58;;;23.50;31.10;;;;;;5091924;28;20443;-58
2021/04/23 09:47:18;;;;;;;3.65;1.80;;;23.50;31.10;;;;;;5092635;28;20386;-57
2021/04/23 09:49:54;;;;;;;4.67;1.33;;;23.60;31.20;;;;;;5092385;28;20459;-57
2021/04/23 09:52:21;;;;;;;3.40;1.50;;;23.60;31.10;;;;;;5091177;28;20390;-57
2021/04/23 09:54:50;;;;;;;2.13;1.40;;;23.60;31.30;;;;;;5092094;28;20394;-58
2021/04/23 09:57:20;;;;;;;3.40;1.42;;;23.70;31.30;;;;;;5092321;28;20374;-57
2021/04/23 09:59:58;;;;;;;2.88;1.30;;;23.70;31.30;;;;;;5092220;28;20390;-57
2021/04/23 10:02:28;;;;;;;3.20;1.50;;;23.80;31.40;;;;;;5092051;28;20427;-57
2021/04/23 10:04:55;;;;;;;2.80;1.60;;;23.80;31.40;;;;;;5092254;28;20386;-66
2021/04/23 10:07:34;;;;;;;3.30;1.35;;;23.80;31.50;;;;;;5092052;28;20401;-66
2021/04/23 10:10:05;;;;;;;2.42;1.50;;;23.90;31.50;;;;;;5092175;28;20382;-65
2021/04/23 10:12:34;;;;;;;3.58;1.30;;;23.90;31.60;;;;;;5090664;28;20743;-65
2021/04/23 10:15:17;;;;;;;2.50;1.23;;;23.90;31.50;;;;;;5090706;28;20922;-64
2021/04/23 10:17:53;;;;;;;2.72;1.50;;;23.90;31.60;;;;;;5091750;28;20374;-57
2021/04/23 10:20:37;;;;;;;2.80;1.40;;;24.00;31.50;;;;;;5091775;28;20397;-57
2021/04/23 10:23:05;;;;;;;2.50;1.33;;;24.00;31.60;;;;;;5091436;28;20401;-57
2021/04/23 10:25:32;;;;;;;1.92;1.33;;;24.10;31.70;;;;;;5090758;28;20501;-63
2021/04/23 10:28:00;;;;;;;2.42;1.30;;;24.10;31.50;;;;;;5091584;28;20382;-65
2021/04/23 10:30:30;;;;;;;5.10;1.50;;;24.10;31.80;;;;;;5091470;28;20394;-57
2021/04/23 10:32:59;;;;;;;4.43;1.98;;;24.10;31.10;;;;;;5091256;28;20730;-66
2021/04/23 10:35:26;;;;;;;4.13;1.80;;;24.10;30.30;;;;;;5090165;28;20394;-62
2021/04/23 10:37:52;;;;;;;4.07;1.70;;;24.10;30.60;;;;;;5091302;28;20461;-58
2021/04/23 10:40:22;;;;;;;5.32;1.60;;;24.20;30.30;;;;;;5091391;28;20400;-66
2021/04/23 10:42:56;;;;;;;6.38;2.08;;;24.20;30.20;;;;;;5091184;28;20418;-57
2021/04/23 10:45:38;;;;;;;5.00;1.85;;;24.30;30.00;;;;;;5091462;28;20394;-57
2021/04/23 10:48:13;;;;;;;8.43;2.30;;;24.30;29.40;;;;;;5091474;28;20401;-57
2021/04/23 10:50:40;;;;;;;6.40;2.28;;;24.30;29.70;;;;;;5090576;28;21022;-58
2021/04/23 10:53:20;;;;;;;8.27;2.55;;;24.30;30.00;;;;;;5091065;28;20397;-57
2021/04/23 10:55:48;;;;;;;7.17;2.30;;;24.40;30.20;;;;;;5091042;28;20475;-60
2021/04/23 10:58:25;;;;;;;4.97;1.80;;;24.40;30.30;;;;;;5091341;28;20378;-59
2021/04/23 11:00:52;;;;;;;5.85;1.80;;;24.50;30.00;;;;;;5089305;28;20406;-59
2021/04/23 11:03:27;;;;;;;9.13;1.90;;;24.50;30.00;;;;;;5090813;28;20397;-57
2021/04/23 11:06:04;;;;;;;23.05;2.90;;;24.60;29.90;;;;;;5090657;28;20382;-57
2021/04/23 11:08:33;;;;;;;11.23;2.30;;;24.60;29.50;;;;;;5089319;28;20382;-57
2021/04/23 11:11:02;;;;;;;13.48;2.33;;;24.60;29.30;;;;;;5090843;28;20390;-57
2021/04/23 11:13:32;;;;;;;9.88;2.22;;;24.70;29.80;;;;;;5090341;28;20382;-57
2021/04/23 11:16:20;;;;;;;8.82;2.30;;;24.70;30.00;;;;;;5089091;28;20801;-58
2021/04/23 11:18:53;;;;;;;10.95;2.25;;;24.80;30.20;;;;;;5087428;28;20436;-57
2021/04/23 11:21:35;;;;;;;10.40;2.22;;;24.90;30.30;;;;;;5069024;28;20526;-60
2021/04/23 11:24:13;;;;;;;9.35;2.55;;;24.90;30.60;;;;;;5070534;28;20489;-58
2021/04/23 11:26:58;;;;;;;8.25;2.10;;;25.00;30.60;;;;;;5068495;28;20872;-58
2021/04/23 11:29:28;;;;;;;6.80;1.92;;;25.00;31.60;;;;;;5068577;28;20402;-58
2021/04/23 11:32:22;;;;;;;5.82;1.83;;;25.00;31.00;;;;;;5069960;28;20376;-58
2021/04/23 11:34:48;;;;;;;7.18;1.90;;;25.10;31.00;;;;;;5069690;28;20392;-58
2021/04/23 11:37:23;;;;;;;6.00;2.10;;;25.10;30.80;;;;;;5068908;28;20392;-57
2021/04/23 11:39:51;;;;;;;5.93;1.60;;;25.10;30.80;;;;;;5068718;28;20388;-58
2021/04/23 11:42:31;;;;;;;5.75;1.50;;;25.20;30.70;;;;;;5069993;28;20443;-58
2021/04/23 11:45:06;;;;;;;7.85;2.08;;;25.30;30.90;;;;;;5068489;28;20722;-58
2021/04/23 11:47:36;;;;;;;4.57;1.60;;;25.30;31.40;;;;;;5068778;28;20457;-58
2021/04/23 11:50:12;;;;;;;5.27;1.50;;;25.30;32.20;;;;;;5070093;28;20577;-58
2021/04/23 11:52:40;;;;;;;5.57;1.70;;;25.40;31.30;;;;;;5069487;28;20391;-58
2021/04/23 11:55:22;;;;;;;4.38;1.40;;;25.40;31.70;;;;;;5068106;28;20890;-58
2021/04/23 11:57:50;;;;;;;10.10;1.63;;;25.50;31.90;;;;;;5069686;28;20399;-59
2021/04/23 12:00:23;;;;;;;6.72;1.60;;;25.50;31.80;;;;;;5069648;28;20414;-65
2021/04/23 12:03:05;;;;;;;5.25;1.45;;;25.60;32.00;;;;;;5069292;28;20396;-58
2021/04/23 12:05:40;;;;;;;4.90;1.40;;;25.60;31.60;;;;;;5068839;28;20379;-58
2021/04/23 12:08:19;;;;;;;3.33;1.20;;;25.60;31.40;;;;;;5069705;28;20399;-58
2021/04/23 12:10:53;;;;;;;3.08;1.25;;;25.70;31.80;;;;;;5069494;28;20478;-58
2021/04/23 12:13:21;;;;;;;3.20;1.10;;;25.70;31.50;;;;;;5069944;28;20387;-58
2021/04/23 12:15:50;;;;;;;3.67;1.50;;;25.70;31.00;;;;;;5069780;28;20442;-58
2021/04/23 12:18:17;;;;;;;4.30;1.50;;;25.70;31.50;;;;;;5069432;28;20440;-58
2021/04/23 12:20:51;;;;;;;5.32;1.33;;;25.80;31.90;;;;;;5069258;28;20415;-58
2021/04/23 12:23:23;;;;;;;10.10;1.88;;;25.80;31.10;;;;;;5069773;28;20474;-58
2021/04/23 12:26:00;;;;;;;4.40;1.23;;;25.90;31.40;;;;;;5069704;28;20384;-58
2021/04/23 12:28:47;;;;;;;3.00;1.00;;;25.90;30.70;;;;;;5069876;28;20380;-58
2021/04/23 12:31:28;;;;;;;2.50;1.02;;;25.90;30.00;;;;;;5068371;28;20410;-58
2021/04/23 12:34:05;;;;;;;3.55;1.20;;;26.00;30.00;;;;;;5069143;28;20388;-58
2021/04/23 12:36:37;;;;;;;3.15;1.30;;;26.00;30.00;;;;;;5068969;28;20384;-58
2021/04/23 12:39:08;;;;;;;4.25;1.33;;;26.00;29.90;;;;;;5069702;28;20471;-58
2021/04/23 12:41:35;;;;;;;3.35;1.20;;;26.00;29.80;;;;;;5069650;28;20433;-58
2021/04/23 12:44:07;;;;;;;2.65;1.00;;;26.00;29.80;;;;;;5068161;28;20787;-58
2021/04/23 12:46:52;;;;;;;2.90;1.17;;;26.10;29.80;;;;;;5069239;28;20420;-58
2021/04/23 12:49:27;;;;;;;2.40;1.25;;;26.10;29.70;;;;;;5073197;28;20383;-58
2021/04/23 12:52:00;;;;;;;2.38;1.10;;;26.20;29.80;;;;;;5072996;28;20437;-58
2021/04/23 12:54:33;;;;;;;4.03;1.13;;;26.20;29.90;;;;;;5071847;28;20420;-57